Sulphur Springs, Arkansas
Current Conditions -  °F | °C
As of 12:15 PM on Thursday 23 Oct 2014 (Local Time) from KVBT Reporting Station
Broken Clouds Broken Clouds  
Wind Chill: 57°   Ceiling: 11000
Heat Index: 57°   Visibility: 10mi
Dew Point: 50°   Wind: 8mph
Humidity: 77%   Direction: 230°SW
Pressure: 30.2"   Gusts: NA
Location:  36.48°N, 94.46°W
Report Text: KVBT 231715Z AUTO 23007KT 10SM SCT031 SCT042 BKN110 14/10 A3020 RMK AO1 P0001
Loading
Personal Weather Stations






























Interactive Weather Map
Tropical Storm Tracking
New forecast layout! Learn more

10-Day Weather Forecast

Advertisements
Track Severe Weather on mobile